createdAt,value
2018-12-26T00:00:22.645Z,0.90
2018-12-26T00:02:51.203Z,0.90
2018-12-26T00:05:19.733Z,0.90
2018-12-26T00:07:48.284Z,0.80
2018-12-26T00:10:16.850Z,0.80
2018-12-26T00:12:45.365Z,0.80
2018-12-26T00:15:13.811Z,0.90
2018-12-26T00:17:42.243Z,0.80
2018-12-26T00:20:10.726Z,0.80
2018-12-26T00:22:39.144Z,0.70
2018-12-26T00:25:07.610Z,0.70
2018-12-26T00:27:36.124Z,0.70
2018-12-26T00:30:04.984Z,0.70
2018-12-26T00:32:33.440Z,0.70
2018-12-26T00:35:01.946Z,0.60
2018-12-26T00:37:30.420Z,0.60
2018-12-26T00:39:58.939Z,0.60
2018-12-26T00:42:27.367Z,0.60
2018-12-26T00:44:55.824Z,0.60
2018-12-26T00:47:24.260Z,2.10
2018-12-26T00:49:52.711Z,0.50
2018-12-26T00:52:21.144Z,0.40
2018-12-26T00:54:49.611Z,0.40
2018-12-26T00:57:18.054Z,0.40
2018-12-26T00:59:46.477Z,0.40
2018-12-26T01:02:14.930Z,0.30
2018-12-26T01:04:43.360Z,0.30
2018-12-26T01:07:11.806Z,0.30
2018-12-26T01:09:40.231Z,0.30
2018-12-26T01:12:08.691Z,0.30
2018-12-26T01:14:37.195Z,0.30
2018-12-26T01:17:05.655Z,0.30
2018-12-26T01:19:34.074Z,0.20
2018-12-26T01:22:02.535Z,0.20
2018-12-26T01:24:30.978Z,0.20
2018-12-26T01:26:59.498Z,0.20
2018-12-26T01:29:27.935Z,0.20
2018-12-26T01:31:56.387Z,0.20
2018-12-26T01:34:24.867Z,0.20
2018-12-26T01:36:53.351Z,0.20
2018-12-26T01:39:21.805Z,0.20
2018-12-26T01:41:50.275Z,0.20
2018-12-26T01:44:18.698Z,2.10
2018-12-26T01:46:47.157Z,0.10
2018-12-26T01:49:15.612Z,0.10
2018-12-26T01:51:44.116Z,0.10
2018-12-26T01:54:12.562Z,0.10
2018-12-26T01:56:40.986Z,0.10
2018-12-26T01:59:09.442Z,0.10
2018-12-26T02:01:37.914Z,0.10
2018-12-26T02:04:06.362Z,0.10
2018-12-26T02:06:34.880Z,0.10
2018-12-26T02:09:04.393Z,0.10
2018-12-26T02:11:32.808Z,0.10
2018-12-26T02:14:01.270Z,0.00
2018-12-26T02:16:29.723Z,0.00
2018-12-26T02:18:58.158Z,0.00
2018-12-26T02:21:26.667Z,0.00
2018-12-26T02:23:55.240Z,0.00
2018-12-26T02:26:23.676Z,0.00
2018-12-26T02:28:52.123Z,0.00
2018-12-26T02:31:20.582Z,0.00
2018-12-26T02:33:49.039Z,-0.10
2018-12-26T02:36:17.489Z,-0.10
2018-12-26T02:38:45.911Z,-0.10
2018-12-26T02:41:14.462Z,-0.10
2018-12-26T02:43:42.892Z,-0.10
2018-12-26T02:46:11.350Z,-0.10
2018-12-26T02:48:39.804Z,-0.10
2018-12-26T02:51:08.255Z,-0.10
2018-12-26T02:53:36.878Z,-0.10
2018-12-26T02:56:05.331Z,-0.10
2018-12-26T02:58:33.760Z,-0.10
2018-12-26T03:01:02.223Z,-0.10
2018-12-26T03:03:30.729Z,-0.10
2018-12-26T03:05:59.199Z,-0.10
2018-12-26T03:08:27.630Z,-0.20
2018-12-26T03:10:56.159Z,-0.10
2018-12-26T03:13:24.657Z,-0.20
2018-12-26T03:15:53.166Z,-0.10
2018-12-26T03:18:21.716Z,-0.20
2018-12-26T03:20:50.198Z,-0.20
2018-12-26T03:23:18.647Z,-0.20
2018-12-26T03:25:47.088Z,-0.20
2018-12-26T03:28:15.604Z,-0.20
2018-12-26T03:30:44.161Z,-0.20
2018-12-26T03:33:12.629Z,-0.30
2018-12-26T03:35:41.130Z,-0.30
2018-12-26T03:38:09.695Z,-0.30
2018-12-26T03:40:38.159Z,-0.30
2018-12-26T03:43:06.744Z,-0.30
2018-12-26T03:45:36.126Z,-0.30
2018-12-26T03:48:04.836Z,-0.30
2018-12-26T03:50:33.395Z,-0.30
2018-12-26T03:53:01.998Z,-0.30
2018-12-26T03:55:30.427Z,-0.30
2018-12-26T03:57:59.105Z,-0.30
2018-12-26T04:00:27.552Z,-0.30
2018-12-26T04:02:56.005Z,-0.30
2018-12-26T04:05:24.512Z,-0.30
2018-12-26T04:07:53.155Z,-0.40
2018-12-26T04:10:21.595Z,-0.30
2018-12-26T04:12:50.264Z,-0.30
2018-12-26T04:15:18.707Z,-0.30
2018-12-26T04:17:47.220Z,-0.30
2018-12-26T04:20:15.815Z,-0.30
2018-12-26T04:22:44.390Z,-0.30
2018-12-26T04:25:13.021Z,-0.30
2018-12-26T04:27:41.456Z,-0.30
2018-12-26T04:30:10.594Z,-0.40
2018-12-26T04:32:39.016Z,-0.30
2018-12-26T04:35:07.604Z,-0.30
2018-12-26T04:37:36.045Z,-0.30
2018-12-26T04:40:05.931Z,-0.30
2018-12-26T04:42:34.362Z,-0.30
2018-12-26T04:45:02.831Z,-0.40
2018-12-26T04:47:31.271Z,-0.30
2018-12-26T04:49:59.719Z,-0.40
2018-12-26T04:52:28.158Z,-0.40
2018-12-26T04:54:56.618Z,-0.40
2018-12-26T04:57:25.247Z,-0.40
2018-12-26T04:59:53.720Z,-0.40
2018-12-26T05:02:22.213Z,-0.40
2018-12-26T05:04:50.666Z,-0.40
2018-12-26T05:07:19.128Z,-0.50
2018-12-26T05:09:47.551Z,-0.40
2018-12-26T05:12:16.079Z,-0.40
2018-12-26T05:14:44.651Z,-0.40
2018-12-26T05:17:13.184Z,-0.40
2018-12-26T05:19:41.682Z,-0.40
2018-12-26T05:22:10.208Z,-0.50
2018-12-26T05:24:38.712Z,-0.50
2018-12-26T05:27:07.233Z,-0.50
2018-12-26T05:29:35.683Z,-0.50
2018-12-26T05:32:04.275Z,-0.40
2018-12-26T05:34:32.700Z,-0.50
2018-12-26T05:37:01.183Z,-0.50
2018-12-26T05:39:29.618Z,-0.50
2018-12-26T05:41:58.076Z,-0.50
2018-12-26T05:44:26.504Z,-0.50
2018-12-26T05:46:54.932Z,-0.40
2018-12-26T05:49:23.386Z,-0.50
2018-12-26T05:51:51.824Z,-0.50
2018-12-26T05:54:20.279Z,-0.40
2018-12-26T05:56:48.716Z,-0.40
2018-12-26T05:59:17.174Z,-0.40
2018-12-26T06:01:45.603Z,-1.70
2018-12-26T06:04:14.051Z,-0.40
2018-12-26T06:06:42.487Z,-0.40
2018-12-26T06:09:10.950Z,-0.50
2018-12-26T06:11:39.387Z,-0.40
2018-12-26T06:14:07.845Z,-0.40
2018-12-26T06:16:36.281Z,-0.40
2018-12-26T06:19:04.738Z,-0.40
2018-12-26T06:21:33.183Z,-0.40
2018-12-26T06:24:01.635Z,-0.40
2018-12-26T06:26:30.068Z,-0.40
2018-12-26T06:28:58.525Z,-0.50
2018-12-26T06:31:27.232Z,-0.50
2018-12-26T06:33:55.689Z,-0.50
2018-12-26T06:36:24.124Z,-0.40
2018-12-26T06:38:52.563Z,-0.50
2018-12-26T06:41:21.015Z,-0.50
2018-12-26T06:43:49.467Z,-0.50
2018-12-26T06:46:17.931Z,-0.50
2018-12-26T06:48:46.431Z,-0.50
2018-12-26T06:51:14.891Z,-0.50
2018-12-26T06:53:43.329Z,-0.50
2018-12-26T06:56:11.777Z,-2.70
2018-12-26T06:58:40.211Z,-0.50
2018-12-26T07:01:08.659Z,-0.60
2018-12-26T07:03:37.127Z,-0.50
2018-12-26T07:06:05.585Z,-0.50
2018-12-26T07:08:34.024Z,-0.50
2018-12-26T07:11:02.503Z,-0.40
2018-12-26T07:13:30.916Z,-0.40
2018-12-26T07:15:59.387Z,-0.40
2018-12-26T07:18:27.861Z,-0.40
2018-12-26T07:20:56.303Z,-0.30
2018-12-26T07:23:24.768Z,-0.30
2018-12-26T07:25:53.218Z,-0.30
2018-12-26T07:28:21.661Z,-0.20
2018-12-26T07:30:50.128Z,-0.20
2018-12-26T07:33:18.551Z,-0.20
2018-12-26T07:35:47.123Z,-0.10
2018-12-26T07:38:15.577Z,-0.20
2018-12-26T07:40:44.071Z,-0.20
2018-12-26T07:43:12.495Z,-0.10
2018-12-26T07:45:40.925Z,-0.20
2018-12-26T07:48:09.378Z,-0.10
2018-12-26T07:50:37.815Z,-0.20
2018-12-26T07:53:06.273Z,-0.10
2018-12-26T07:55:34.709Z,-0.20
2018-12-26T07:58:03.165Z,-0.20
2018-12-26T08:00:31.614Z,-0.20
2018-12-26T08:03:00.060Z,-0.30
2018-12-26T08:05:28.516Z,-0.30
2018-12-26T08:07:56.972Z,-0.20
2018-12-26T08:10:25.444Z,-0.20
2018-12-26T08:12:53.998Z,-0.20
2018-12-26T08:15:22.436Z,-0.20
2018-12-26T08:17:50.895Z,-0.20
2018-12-26T08:20:19.311Z,-0.20
2018-12-26T08:22:47.751Z,-0.10
2018-12-26T08:25:16.199Z,-0.10
2018-12-26T08:27:44.635Z,-0.10
2018-12-26T08:30:13.091Z,0.00
2018-12-26T08:32:41.588Z,0.00
2018-12-26T08:35:10.055Z,0.00
2018-12-26T08:37:38.474Z,0.00
2018-12-26T08:40:07.763Z,0.10
2018-12-26T08:42:36.201Z,0.10
2018-12-26T08:45:04.887Z,0.20
2018-12-26T08:47:33.339Z,0.20
2018-12-26T08:50:01.783Z,0.30
2018-12-26T08:52:30.234Z,1.50
2018-12-26T08:54:58.691Z,0.40
2018-12-26T08:57:27.197Z,0.50
2018-12-26T08:59:55.732Z,0.50
2018-12-26T09:02:24.159Z,0.60
2018-12-26T09:04:52.601Z,0.60
2018-12-26T09:07:21.022Z,0.60
2018-12-26T09:09:49.468Z,0.60
2018-12-26T09:12:17.910Z,0.60
2018-12-26T09:14:46.360Z,0.70
2018-12-26T09:17:14.864Z,0.70
2018-12-26T09:19:43.282Z,0.70
2018-12-26T09:22:11.738Z,0.70
2018-12-26T09:24:40.203Z,0.80
2018-12-26T09:27:08.784Z,0.90
2018-12-26T09:29:37.219Z,0.90
2018-12-26T09:32:05.685Z,1.00
2018-12-26T09:34:34.111Z,1.00
2018-12-26T09:37:02.565Z,1.10
2018-12-26T09:39:31.006Z,1.10
2018-12-26T09:41:59.459Z,1.10
2018-12-26T09:44:27.893Z,1.10
2018-12-26T09:46:56.347Z,1.00
2018-12-26T09:49:24.795Z,1.00
2018-12-26T09:51:53.244Z,1.10
2018-12-26T09:54:21.691Z,1.20
2018-12-26T09:56:50.121Z,1.20
2018-12-26T09:59:18.568Z,1.40
2018-12-26T10:01:46.990Z,1.40
2018-12-26T10:04:15.438Z,1.50
2018-12-26T10:06:43.868Z,1.60
2018-12-26T10:09:12.341Z,1.60
2018-12-26T10:11:40.783Z,1.60
2018-12-26T10:14:09.240Z,1.70
2018-12-26T10:16:37.682Z,1.70
2018-12-26T10:19:06.132Z,1.70
2018-12-26T10:21:34.557Z,1.80
2018-12-26T10:24:03.024Z,2.00
2018-12-26T10:26:31.444Z,2.00
2018-12-26T10:29:01.001Z,2.00
2018-12-26T10:31:29.773Z,2.10
2018-12-26T10:33:58.256Z,2.10
2018-12-26T10:36:26.764Z,2.20
2018-12-26T10:38:55.224Z,2.30
2018-12-26T10:41:23.646Z,2.40
2018-12-26T10:43:52.076Z,2.40
2018-12-26T10:46:20.544Z,2.50
2018-12-26T10:48:49.079Z,2.60
2018-12-26T10:51:17.545Z,2.70
2018-12-26T10:53:45.972Z,2.80
2018-12-26T10:56:14.431Z,3.00
2018-12-26T10:58:43.131Z,3.10
2018-12-26T11:01:11.612Z,3.40
2018-12-26T11:03:40.036Z,3.60
2018-12-26T11:06:08.485Z,3.70
2018-12-26T11:08:36.929Z,3.80
2018-12-26T11:11:05.440Z,3.80
2018-12-26T11:13:33.871Z,3.80
2018-12-26T11:16:02.354Z,3.90
2018-12-26T11:18:31.403Z,3.80
2018-12-26T11:20:59.979Z,3.80
2018-12-26T11:23:28.406Z,3.90
2018-12-26T11:25:56.850Z,4.00
2018-12-26T11:28:25.292Z,4.00
2018-12-26T11:30:53.800Z,4.00
2018-12-26T11:33:22.263Z,4.00
2018-12-26T11:35:50.702Z,4.20
2018-12-26T11:38:19.236Z,4.20
2018-12-26T11:40:47.736Z,4.10
2018-12-26T11:43:16.191Z,4.30
2018-12-26T11:45:44.654Z,4.30
2018-12-26T11:48:13.116Z,4.50
2018-12-26T11:50:41.624Z,4.50
2018-12-26T11:53:10.086Z,4.50
2018-12-26T11:55:38.507Z,4.60
2018-12-26T11:58:06.976Z,4.70
2018-12-26T12:00:35.491Z,4.60
2018-12-26T12:03:04.007Z,4.70
2018-12-26T12:05:32.513Z,4.70
2018-12-26T12:08:01.091Z,4.60
2018-12-26T12:10:29.593Z,4.70
2018-12-26T12:12:58.196Z,4.80
2018-12-26T12:15:26.716Z,4.80
2018-12-26T12:17:55.328Z,4.70
2018-12-26T12:20:23.912Z,4.90
2018-12-26T12:22:52.425Z,5.00
2018-12-26T12:25:20.839Z,4.90
2018-12-26T12:27:49.303Z,5.00
2018-12-26T12:30:17.715Z,4.90
2018-12-26T12:32:46.236Z,5.00
2018-12-26T12:35:14.676Z,5.20
2018-12-26T12:37:43.099Z,5.30
2018-12-26T12:40:11.798Z,5.20
2018-12-26T12:42:40.426Z,5.20
2018-12-26T12:45:08.944Z,5.30
2018-12-26T12:47:37.725Z,5.30
2018-12-26T12:50:07.400Z,5.20
2018-12-26T12:52:35.898Z,5.40
2018-12-26T12:55:04.903Z,5.30
2018-12-26T12:57:33.430Z,5.40
2018-12-26T13:00:01.947Z,5.30
2018-12-26T13:02:30.371Z,5.40
2018-12-26T13:04:58.848Z,5.40
2018-12-26T13:07:27.339Z,5.30
2018-12-26T13:09:55.800Z,5.20
2018-12-26T13:12:24.231Z,5.20
2018-12-26T13:14:52.787Z,5.20
2018-12-26T13:17:21.227Z,5.30
2018-12-26T13:19:49.698Z,5.20
2018-12-26T13:22:18.999Z,5.10
2018-12-26T13:24:47.611Z,5.10
2018-12-26T13:27:16.047Z,5.10
2018-12-26T13:29:44.520Z,5.10
2018-12-26T13:32:12.980Z,5.00
2018-12-26T13:34:41.467Z,5.10
2018-12-26T13:37:09.932Z,5.10
2018-12-26T13:39:38.371Z,5.00
2018-12-26T13:42:06.828Z,5.00
2018-12-26T13:44:35.251Z,5.10
2018-12-26T13:47:03.779Z,5.10
2018-12-26T13:49:32.212Z,5.20
2018-12-26T13:52:00.779Z,5.10
2018-12-26T13:54:29.284Z,5.10
2018-12-26T13:56:57.778Z,5.10
2018-12-26T13:59:26.230Z,5.00
2018-12-26T14:01:54.666Z,4.90
2018-12-26T14:04:23.128Z,4.90
2018-12-26T14:06:51.591Z,4.80
2018-12-26T14:09:20.102Z,4.80
2018-12-26T14:11:48.560Z,4.80
2018-12-26T14:14:17.057Z,4.80
2018-12-26T14:16:45.577Z,4.80
2018-12-26T14:19:14.015Z,4.70
2018-12-26T14:21:42.470Z,4.80
2018-12-26T14:24:10.939Z,4.80
2018-12-26T14:26:39.392Z,4.80
2018-12-26T14:29:07.851Z,4.80
2018-12-26T14:31:36.275Z,4.80
2018-12-26T14:34:04.767Z,4.80
2018-12-26T14:36:33.232Z,4.80
2018-12-26T14:39:01.704Z,4.80
2018-12-26T14:41:30.134Z,4.70
2018-12-26T14:43:58.561Z,4.70
2018-12-26T14:46:27.018Z,4.60
2018-12-26T14:48:55.447Z,4.50
2018-12-26T14:51:26.577Z,4.50
2018-12-26T14:53:54.308Z,4.40
2018-12-26T14:56:22.766Z,4.40
2018-12-26T14:58:51.272Z,4.40
2018-12-26T15:01:19.687Z,4.30
2018-12-26T15:03:48.151Z,4.20
2018-12-26T15:06:16.581Z,4.20
2018-12-26T15:08:45.052Z,4.20
2018-12-26T15:11:13.507Z,4.10
2018-12-26T15:13:41.927Z,4.10
2018-12-26T15:16:10.396Z,4.10
2018-12-26T15:18:38.826Z,4.10
2018-12-26T15:21:07.260Z,4.00
2018-12-26T15:23:35.683Z,3.90
2018-12-26T15:26:04.242Z,3.90
2018-12-26T15:28:32.693Z,3.80
2018-12-26T15:31:01.139Z,3.80
2018-12-26T15:33:29.563Z,3.70
2018-12-26T15:35:58.082Z,3.70
2018-12-26T15:38:26.508Z,3.60
2018-12-26T15:40:54.951Z,3.50
2018-12-26T15:43:23.389Z,3.50
2018-12-26T15:45:51.851Z,3.40
2018-12-26T15:48:20.275Z,3.40
2018-12-26T15:50:48.939Z,3.30
2018-12-26T15:53:17.376Z,3.30
2018-12-26T15:55:45.968Z,3.20
2018-12-26T15:58:14.410Z,3.20
2018-12-26T16:00:42.919Z,3.20
2018-12-26T16:03:11.371Z,3.10
2018-12-26T16:05:39.803Z,3.10
2018-12-26T16:08:08.236Z,3.10
2018-12-26T16:10:36.798Z,3.00
2018-12-26T16:13:05.319Z,3.00
2018-12-26T16:15:33.763Z,3.00
2018-12-26T16:18:02.241Z,3.00
2018-12-26T16:20:30.659Z,2.90
2018-12-26T16:22:59.123Z,2.90
2018-12-26T16:25:27.547Z,2.90
2018-12-26T16:27:56.133Z,2.90
2018-12-26T16:30:24.775Z,2.90
2018-12-26T16:32:53.238Z,2.80
2018-12-26T16:35:24.569Z,2.80
2018-12-26T16:38:01.295Z,2.80
2018-12-26T16:40:26.510Z,2.70
2018-12-26T16:42:55.008Z,2.70
2018-12-26T16:45:23.608Z,2.70
2018-12-26T16:47:52.131Z,2.70
2018-12-26T16:50:26.877Z,2.60
2018-12-26T16:52:50.725Z,2.60
2018-12-26T16:55:19.167Z,2.60
2018-12-26T16:57:47.804Z,2.60
2018-12-26T17:00:16.260Z,2.60
2018-12-26T17:02:44.705Z,2.50
2018-12-26T17:05:13.172Z,2.60
2018-12-26T17:07:41.601Z,2.50
2018-12-26T17:10:15.981Z,2.50
2018-12-26T17:12:45.948Z,2.50
2018-12-26T17:15:14.475Z,2.50
2018-12-26T17:17:45.683Z,2.50
2018-12-26T17:20:14.297Z,2.50
2018-12-26T17:22:42.719Z,2.50
2018-12-26T17:25:11.280Z,2.50
2018-12-26T17:27:39.783Z,2.50
2018-12-26T17:30:08.893Z,2.50
2018-12-26T17:32:37.336Z,2.40
2018-12-26T17:35:06.070Z,2.40
2018-12-26T17:37:34.529Z,2.40
2018-12-26T17:40:04.123Z,2.40
2018-12-26T17:42:32.600Z,2.40
2018-12-26T17:45:01.112Z,2.50
2018-12-26T17:47:29.583Z,2.50
2018-12-26T17:50:33.760Z,2.40
2018-12-26T17:53:02.195Z,2.40
2018-12-26T17:55:54.782Z,2.40
2018-12-26T17:58:24.966Z,2.40
2018-12-26T18:00:56.592Z,2.30
2018-12-26T18:03:25.026Z,2.30
2018-12-26T18:05:53.618Z,2.30
2018-12-26T18:08:22.139Z,2.30
2018-12-26T18:10:50.595Z,2.30
2018-12-26T18:13:19.045Z,2.20
2018-12-26T18:15:47.477Z,2.20
2018-12-26T18:18:15.940Z,2.20
2018-12-26T18:20:44.382Z,2.20
2018-12-26T18:23:12.959Z,2.20
2018-12-26T18:25:41.397Z,2.20
2018-12-26T18:28:09.857Z,2.10
2018-12-26T18:30:38.292Z,2.10
2018-12-26T18:33:06.764Z,2.10
2018-12-26T18:35:35.217Z,2.10
2018-12-26T18:38:03.746Z,2.10
2018-12-26T18:40:32.225Z,2.10
2018-12-26T18:43:00.688Z,2.10
2018-12-26T18:45:29.143Z,2.10
2018-12-26T18:47:57.591Z,2.10
2018-12-26T18:50:26.057Z,2.10
2018-12-26T18:52:54.603Z,2.10
2018-12-26T18:55:23.056Z,2.10
2018-12-26T18:57:51.535Z,2.10
2018-12-26T19:00:20.065Z,2.10
2018-12-26T19:02:48.584Z,2.10
2018-12-26T19:05:17.211Z,2.10
2018-12-26T19:07:45.653Z,2.00
2018-12-26T19:10:14.192Z,2.00
2018-12-26T19:12:42.734Z,2.00
2018-12-26T19:15:11.206Z,2.00
2018-12-26T19:17:39.719Z,2.00
2018-12-26T19:20:09.118Z,2.00
2018-12-26T19:22:37.627Z,2.00
2018-12-26T19:25:06.179Z,2.00
2018-12-26T19:27:34.810Z,2.00
2018-12-26T19:30:03.479Z,2.00
2018-12-26T19:32:31.903Z,2.00
2018-12-26T19:35:00.457Z,2.00
2018-12-26T19:37:28.883Z,2.00
2018-12-26T19:39:57.424Z,2.00
2018-12-26T19:42:25.883Z,2.00
2018-12-26T19:44:54.389Z,2.00
2018-12-26T19:47:23.013Z,2.00
2018-12-26T19:49:51.451Z,1.90
2018-12-26T19:52:20.012Z,1.90
2018-12-26T19:54:48.448Z,1.90
2018-12-26T19:57:16.967Z,1.90
2018-12-26T19:59:45.447Z,1.90
2018-12-26T20:02:13.930Z,1.90
2018-12-26T20:04:42.362Z,1.90
2018-12-26T20:07:10.836Z,1.90
2018-12-26T20:09:39.295Z,1.90
2018-12-26T20:12:07.996Z,1.90
2018-12-26T20:14:36.468Z,1.90
2018-12-26T20:17:04.891Z,1.80
2018-12-26T20:19:33.355Z,1.80
2018-12-26T20:22:01.789Z,1.80
2018-12-26T20:24:32.011Z,1.80
2018-12-26T20:27:00.569Z,1.70
2018-12-26T20:29:28.985Z,1.70
2018-12-26T20:31:57.441Z,1.70
2018-12-26T20:34:25.949Z,1.70
2018-12-26T20:36:54.395Z,1.70
2018-12-26T20:39:22.926Z,1.70
2018-12-26T20:41:51.427Z,1.70
2018-12-26T20:44:19.897Z,1.70
2018-12-26T20:46:48.402Z,1.70
2018-12-26T20:49:16.832Z,1.70
2018-12-26T20:51:45.347Z,1.80
2018-12-26T20:54:13.853Z,1.80
2018-12-26T20:56:42.319Z,1.90
2018-12-26T20:59:10.751Z,1.90
2018-12-26T21:01:39.346Z,1.90
2018-12-26T21:04:07.792Z,2.00
2018-12-26T21:06:36.282Z,2.00
2018-12-26T21:09:06.650Z,2.10
2018-12-26T21:11:35.171Z,2.10
2018-12-26T21:14:03.631Z,2.10
2018-12-26T21:16:32.108Z,2.20
2018-12-26T21:19:00.598Z,2.20
2018-12-26T21:21:29.076Z,2.20
2018-12-26T21:23:57.606Z,2.20
2018-12-26T21:26:26.064Z,2.10
2018-12-26T21:28:54.691Z,2.10
2018-12-26T21:31:23.142Z,2.10
2018-12-26T21:33:51.651Z,2.10
2018-12-26T21:36:20.106Z,2.10
2018-12-26T21:38:48.530Z,2.10
2018-12-26T21:41:16.984Z,2.20
2018-12-26T21:43:45.419Z,2.20
2018-12-26T21:46:13.856Z,2.10
2018-12-26T21:48:42.310Z,2.10
2018-12-26T21:51:10.769Z,2.10
2018-12-26T21:53:39.216Z,2.10
2018-12-26T21:56:07.662Z,2.10
2018-12-26T21:58:36.113Z,2.20
2018-12-26T22:01:04.611Z,2.20
2018-12-26T22:03:33.062Z,2.20
2018-12-26T22:06:01.526Z,2.20
2018-12-26T22:08:30.059Z,2.20
2018-12-26T22:10:58.491Z,2.20
2018-12-26T22:13:26.957Z,2.20
2018-12-26T22:15:55.386Z,2.30
2018-12-26T22:18:23.833Z,2.30
2018-12-26T22:20:52.279Z,2.20
2018-12-26T22:23:20.743Z,2.30
2018-12-26T22:25:49.151Z,2.30
2018-12-26T22:28:17.611Z,2.30
2018-12-26T22:30:46.046Z,2.30
2018-12-26T22:33:14.483Z,2.30
2018-12-26T22:35:42.943Z,2.30
2018-12-26T22:38:11.390Z,2.30
2018-12-26T22:40:39.942Z,2.30
2018-12-26T22:43:08.363Z,2.40
2018-12-26T22:45:43.936Z,2.40
2018-12-26T22:48:06.999Z,2.40
2018-12-26T22:50:35.504Z,2.40
2018-12-26T22:53:03.939Z,2.40
2018-12-26T22:55:32.420Z,2.40
2018-12-26T22:58:00.839Z,2.40
2018-12-26T23:00:30.932Z,2.40
2018-12-26T23:02:59.361Z,2.40
2018-12-26T23:05:27.887Z,2.40
2018-12-26T23:07:56.383Z,2.40
2018-12-26T23:10:24.850Z,2.40
2018-12-26T23:12:53.275Z,2.50
2018-12-26T23:15:21.739Z,2.50
2018-12-26T23:17:50.179Z,2.50
2018-12-26T23:20:18.642Z,2.50
2018-12-26T23:22:47.088Z,2.50
2018-12-26T23:25:15.583Z,2.50
2018-12-26T23:27:44.039Z,2.40
2018-12-26T23:30:12.551Z,2.50
2018-12-26T23:32:46.951Z,2.50
2018-12-26T23:35:11.167Z,2.50
2018-12-26T23:37:39.639Z,2.50
2018-12-26T23:40:08.144Z,2.50
2018-12-26T23:42:36.612Z,2.50
2018-12-26T23:45:05.497Z,2.50
2018-12-26T23:47:33.955Z,2.50
2018-12-26T23:50:02.643Z,2.50
2018-12-26T23:52:31.152Z,2.50
2018-12-26T23:54:59.670Z,2.50
2018-12-26T23:57:28.124Z,2.50
2018-12-26T23:59:56.591Z,2.50
